createdAt,value
2023-05-07T00:09:53.133Z,100700.00
2023-05-07T00:19:53.124Z,100692.00
2023-05-07T00:29:53.173Z,100692.00
2023-05-07T00:39:53.117Z,100688.00
2023-05-07T00:49:53.224Z,100686.00
2023-05-07T00:59:53.264Z,100686.00
2023-05-07T01:09:53.260Z,100686.00
2023-05-07T01:19:54.104Z,100681.00
2023-05-07T01:29:54.820Z,100673.00
2023-05-07T01:39:55.353Z,100673.00
2023-05-07T01:49:55.383Z,100671.00
2023-05-07T01:59:55.491Z,100667.00
2023-05-07T02:09:56.715Z,100663.00
2023-05-07T02:19:57.558Z,100663.00
2023-05-07T02:29:57.617Z,100665.00
2023-05-07T02:39:57.492Z,100665.00
2023-05-07T02:49:57.453Z,100665.00
2023-05-07T02:59:57.546Z,100669.00
2023-05-07T03:09:57.584Z,100673.00
2023-05-07T03:19:57.772Z,100669.00
2023-05-07T03:29:58.435Z,100659.00
2023-05-07T03:39:58.622Z,100653.00
2023-05-07T03:49:58.680Z,100655.00
2023-05-07T03:59:58.666Z,100665.00
2023-05-07T04:09:58.609Z,100671.00
2023-05-07T04:19:59.827Z,100684.00
2023-05-07T04:30:01.927Z,100688.00
2023-05-07T04:40:04.294Z,100690.00
2023-05-07T04:50:04.686Z,100684.00
2023-05-07T05:00:06.444Z,100684.00
2023-05-07T05:10:07.649Z,100686.00
2023-05-07T05:20:08.612Z,100686.00
2023-05-07T05:30:09.307Z,100690.00
2023-05-07T05:40:10.514Z,100696.00
2023-05-07T05:50:11.015Z,100696.00
2023-05-07T06:00:13.776Z,100704.00
2023-05-07T06:10:14.977Z,100712.00
2023-05-07T06:20:15.821Z,100712.00
2023-05-07T06:30:15.837Z,100714.00
2023-05-07T06:40:16.433Z,100720.00
2023-05-07T06:50:18.255Z,100724.00
2023-05-07T07:00:20.534Z,100722.00
2023-05-07T07:10:21.583Z,100726.00
2023-05-07T07:20:21.934Z,100741.00
2023-05-07T07:30:22.784Z,100739.00
2023-05-07T07:40:23.218Z,100735.00
2023-05-07T07:50:36.078Z,100731.00
2023-05-07T08:00:27.135Z,100735.00
2023-05-07T08:10:29.664Z,100737.00
2023-05-07T08:20:31.149Z,100733.00
2023-05-07T08:30:31.901Z,100733.00
2023-05-07T08:40:32.108Z,100731.00
2023-05-07T08:50:32.485Z,100730.00
2023-05-07T09:00:33.289Z,100728.00
2023-05-07T09:10:34.693Z,100720.00
2023-05-07T09:20:35.490Z,100706.00
2023-05-07T09:30:36.979Z,100702.00
2023-05-07T09:40:38.778Z,100700.00
2023-05-07T09:50:39.102Z,100706.00
2023-05-07T10:00:40.876Z,100694.00
2023-05-07T10:10:55.765Z,100686.00
2023-05-07T10:20:56.932Z,100683.00
2023-05-07T10:30:57.927Z,100677.00
2023-05-07T10:40:58.276Z,100675.00
2023-05-07T10:50:58.192Z,100675.00
2023-05-07T11:00:59.992Z,100671.00
2023-05-07T11:11:02.386Z,100665.00
2023-05-07T11:21:06.899Z,100663.00
2023-05-07T11:31:07.362Z,100657.00
2023-05-07T11:41:07.143Z,100655.00
2023-05-07T11:51:07.226Z,100659.00
2023-05-07T12:01:07.159Z,100663.00
2023-05-07T12:11:07.137Z,100665.00
2023-05-07T12:21:07.670Z,100671.00
2023-05-07T12:31:08.523Z,100677.00
2023-05-07T12:41:09.172Z,100681.00
2023-05-07T12:51:11.216Z,100686.00
2023-05-07T13:01:13.177Z,100686.00
2023-05-07T13:11:13.282Z,100692.00
2023-05-07T13:21:14.324Z,100698.00
2023-05-07T13:31:14.346Z,100708.00
2023-05-07T13:41:14.913Z,100708.00
2023-05-07T13:51:15.903Z,100712.00
2023-05-07T14:01:16.422Z,100714.00
2023-05-07T14:11:16.649Z,100720.00
2023-05-07T14:21:16.439Z,100731.00
2023-05-07T14:31:19.524Z,100761.00
2023-05-07T14:41:19.752Z,100780.00
2023-05-07T14:51:20.427Z,100807.00
2023-05-07T15:01:20.551Z,100807.00
2023-05-07T15:11:20.481Z,100805.00
2023-05-07T15:21:20.463Z,100807.00
2023-05-07T15:31:21.244Z,100813.00
2023-05-07T15:41:21.552Z,100811.00
2023-05-07T15:51:21.694Z,100817.00
2023-05-07T16:01:22.105Z,100815.00
2023-05-07T16:11:23.509Z,100809.00
2023-05-07T16:21:23.560Z,100813.00
2023-05-07T16:31:23.821Z,100815.00
2023-05-07T16:41:26.545Z,100819.00
2023-05-07T16:51:27.531Z,100822.00
2023-05-07T17:01:29.515Z,100826.00
2023-05-07T17:11:31.201Z,100836.00
2023-05-07T17:21:31.809Z,100844.00
2023-05-07T17:31:31.618Z,100860.00
2023-05-07T17:41:31.591Z,100869.00
2023-05-07T17:51:36.267Z,100879.00
2023-05-07T18:01:34.008Z,100887.00
2023-05-07T18:11:34.673Z,100895.00
2023-05-07T18:21:34.681Z,100909.00
2023-05-07T18:31:37.462Z,100917.00
2023-05-07T18:41:36.742Z,100930.00
2023-05-07T18:51:36.898Z,100942.00
2023-05-07T19:01:36.828Z,100952.00
2023-05-07T19:11:39.190Z,100958.00
2023-05-07T19:21:39.766Z,100967.00
2023-05-07T19:31:39.885Z,100975.00
2023-05-07T19:41:41.309Z,100991.00
2023-05-07T19:51:44.837Z,101005.00
2023-05-07T20:01:45.020Z,101014.00
2023-05-07T20:11:45.135Z,101018.00
2023-05-07T20:21:44.942Z,101024.00
2023-05-07T20:31:45.103Z,101038.00
2023-05-07T20:41:44.865Z,101050.00
2023-05-07T20:51:45.090Z,101062.00
2023-05-07T21:01:45.169Z,101068.00
2023-05-07T21:11:45.942Z,101072.00
2023-05-07T21:21:45.910Z,101078.00
2023-05-07T21:31:45.941Z,101076.00
2023-05-07T21:41:45.988Z,101074.00
2023-05-07T21:51:45.940Z,101078.00
2023-05-07T22:01:46.064Z,101082.00
2023-05-07T22:11:45.985Z,101080.00
2023-05-07T22:21:46.032Z,101082.00
2023-05-07T22:31:46.073Z,101084.00
2023-05-07T22:41:46.415Z,101084.00
2023-05-07T22:51:47.078Z,101084.00
2023-05-07T23:01:48.154Z,101086.00
2023-05-07T23:11:48.069Z,101086.00
2023-05-07T23:21:48.680Z,101086.00
2023-05-07T23:31:49.179Z,101082.00
2023-05-07T23:41:49.106Z,101082.00
2023-05-07T23:51:49.175Z,101078.00
